Overview Statistics Trail Chart Weather Telemetry Raw packets
 

This is the latest recevied weather packets stored in our database for station/object G4MHJ-1. If no packets are shown the sender has not sent any weather packets the latest 10 day(s).

<< 1 2 3 4 5 6 7 >>
Time Temp. Humidity Pressure Rain* Wind** Luminosity Snow
1788307079 17.22° C 76% 1019.5 hPa 0 mm - 0 W/m² -
1788303477 17.78° C 74% 1019.3 hPa 0 mm - 0 W/m² -
1788299877 17.78° C 73% 1019.7 hPa 0 mm - 0 W/m² -
1788296277 18.33° C 71% 1019.5 hPa 0 mm - 0 W/m² -
1788292668 18.89° C 68% 1019.3 hPa 0 mm - 0 W/m² -
1788289067 20.56° C 60% 1018.7 hPa 0 mm - 0 W/m² -
1788285467 21.67° C 48% 1018.6 hPa 0 mm - 21 W/m² -
1788281865 22.22° C 48% 1018.5 hPa 0 mm - 104 W/m² -
1788278265 23.33° C 45% 1018.7 hPa 0 mm - 188 W/m² -
1788274665 22.78° C 47% 1019.1 hPa 0 mm - 643 W/m² -
1788271063 23.89° C 46% 1019.2 hPa 0 mm - 146 W/m² -
1788267463 23.33° C 48% 1019.4 hPa 0 mm - 837 W/m² -
1788263862 22.22° C 48% 1019.9 hPa 0 mm - 591 W/m² -
1788260263 20.56° C 52% 1020 hPa 0 mm - 241 W/m² -
1788256663 19.44° C 61% 1020.4 hPa 0 mm - 91 W/m² -
1788253060 17.22° C 73% 1020.7 hPa 0 mm - 371 W/m² -
1788249457 15° C 83% 1020.3 hPa 0 mm - 113 W/m² -
1788245855 13.89° C 86% 1019.9 hPa 0 mm - 51 W/m² -
1788242254 12.78° C 89% 1019.5 hPa 0 mm - 28 W/m² -
1788238668 12.78° C 87% 1019.1 hPa 0.25 mm - 0 W/m² -
1788235053 13.33° C 84% 1018.9 hPa 0 mm - 0 W/m² -
1788231455 14.44° C 80% 1018.8 hPa 0 mm - 0 W/m² -
1788227870 15.56° C 77% 1018.7 hPa 0 mm - 0 W/m² -
1788224250 15.56° C 75% 1018.4 hPa 0 mm - 0 W/m² -
1788220651 16.67° C 73% 1018.2 hPa 0 mm - 0 W/m² -

* Rain latest hour (hover to see other rain measurements)
** Current wind speed in m/s (hover to see current wind gust speed)